Time;durP1;ratioP1;P1;durP2;ratioP2;P2;SDS_P1;SDS_P2;PMS_P1;PMS_P2;Temp;Humidity;BMP_temperature;BMP_pressure;BME280_temperature;BME280_humidity;BME280_pressure;Samples;Min_cycle;Max_cycle;Signal;HPM_P1;HPM_P2
2023/09/05 00:01:46;;;;;;;6.90;2.77;;;15.60;99.90;;;16.70;100.00;98684.91;5074953;28;20503;-81
2023/09/05 00:04:17;;;;;;;5.90;2.43;;;15.50;99.90;;;16.63;100.00;98692.06;5076282;28;20525;-81
2023/09/05 00:06:48;;;;;;;9.73;2.47;;;15.60;99.90;;;16.59;100.00;98692.47;5075236;28;20866;-81
2023/09/05 00:09:19;;;;;;;3.70;2.43;;;15.50;99.90;;;16.53;100.00;98688.00;5075870;28;20456;-81
2023/09/05 00:11:50;;;;;;;5.43;2.57;;;15.50;99.90;;;16.52;100.00;98699.59;5073481;28;20470;-81
2023/09/05 00:14:20;;;;;;;5.00;2.33;;;15.50;99.90;;;16.55;100.00;98687.81;5072116;28;20459;-81
2023/09/05 00:16:50;;;;;;;3.20;2.87;;;15.50;99.90;;;16.47;100.00;98688.84;5075526;28;20472;-81
2023/09/05 00:19:20;;;;;;;8.90;2.80;;;15.40;99.90;;;16.40;100.00;98677.50;5073913;28;20554;-81
2023/09/05 00:21:50;;;;;;;3.87;2.70;;;15.40;99.90;;;16.43;100.00;98676.28;5070772;28;20875;-81
2023/09/05 00:24:32;;;;;;;3.97;2.53;;;15.40;99.90;;;16.42;100.00;98678.09;5074247;28;20452;-81
2023/09/05 00:27:03;;;;;;;5.00;2.80;;;15.40;99.90;;;16.39;100.00;98675.88;5070425;28;20475;-82
2023/09/05 00:29:33;;;;;;;6.30;3.10;;;15.40;99.90;;;16.41;100.00;98675.69;5073638;28;20546;-81
2023/09/05 00:32:03;;;;;;;5.73;2.80;;;15.20;99.90;;;16.35;100.00;98664.09;5076457;28;20460;-81
2023/09/05 00:34:37;;;;;;;4.23;3.03;;;15.30;99.90;;;16.34;100.00;98670.44;5076847;28;20488;-81
2023/09/05 00:37:09;;;;;;;4.43;2.80;;;15.30;99.90;;;16.32;100.00;98667.16;5076963;28;20464;-81
2023/09/05 00:39:41;;;;;;;9.07;2.40;;;15.30;99.90;;;16.31;100.00;98673.50;5075355;28;20531;-81
2023/09/05 00:42:12;;;;;;;4.57;2.70;;;15.20;99.90;;;16.20;100.00;98676.75;5075793;28;20495;-81
2023/09/05 00:44:42;;;;;;;7.10;2.60;;;15.20;99.90;;;16.11;100.00;98668.25;5075409;28;20510;-81
2023/09/05 00:47:12;;;;;;;2.40;2.13;;;15.00;99.90;;;16.10;100.00;98671.09;5074138;28;20551;-81
2023/09/05 00:49:47;;;;;;;5.83;2.57;;;15.20;99.90;;;16.17;100.00;98673.72;5075244;28;20464;-81
2023/09/05 00:52:22;;;;;;;5.10;2.80;;;15.00;99.90;;;16.17;100.00;98671.91;5076084;28;20471;-81
2023/09/05 00:54:52;;;;;;;10.03;2.77;;;15.10;99.90;;;16.08;100.00;98668.66;5074044;28;20482;-81
2023/09/05 00:57:23;;;;;;;3.33;2.40;;;15.10;99.90;;;16.09;100.00;98669.47;5074416;28;20472;-81
2023/09/05 00:59:53;;;;;;;5.63;2.50;;;15.00;99.90;;;16.07;100.00;98664.41;5075140;28;20479;-80
2023/09/05 01:02:24;;;;;;;4.57;2.70;;;15.00;99.90;;;16.11;100.00;98667.44;5073215;28;20594;-82
2023/09/05 01:04:54;;;;;;;5.13;2.93;;;15.00;99.90;;;16.03;100.00;98665.03;5073910;28;20456;-81
2023/09/05 01:07:41;;;;;;;4.77;2.20;;;15.00;99.90;;;15.96;100.00;98664.22;5072263;28;20459;-81
2023/09/05 01:10:16;;;;;;;5.20;2.70;;;14.90;99.90;;;15.96;100.00;98661.59;5074254;28;20487;-81
2023/09/05 01:12:46;;;;;;;5.90;2.67;;;15.00;99.90;;;15.95;100.00;98667.88;5072721;28;21072;-81
2023/09/05 01:15:16;;;;;;;5.50;2.93;;;15.00;99.90;;;15.93;100.00;98662.78;5072630;28;20557;-81
2023/09/05 01:17:50;;;;;;;11.33;2.60;;;14.90;99.90;;;15.92;100.00;98668.28;5073073;28;20478;-81
2023/09/05 01:20:22;;;;;;;5.80;2.50;;;14.90;99.90;;;15.93;100.00;98670.72;5075376;28;20460;-81
2023/09/05 01:23:07;;;;;;;7.40;2.57;;;14.80;99.90;;;15.88;100.00;98659.16;5074043;28;20502;-81
2023/09/05 01:25:38;;;;;;;4.33;2.63;;;14.90;99.90;;;15.91;100.00;98664.03;5071886;28;20548;-81
2023/09/05 01:28:11;;;;;;;4.30;2.27;;;14.80;99.90;;;15.88;100.00;98657.34;5073227;28;20978;-81
2023/09/05 01:30:43;;;;;;;16.23;3.20;;;14.80;99.90;;;15.84;100.00;98650.03;5074501;28;20464;-81
2023/09/05 01:33:15;;;;;;;15.53;3.27;;;14.80;99.90;;;15.74;100.00;98658.38;5074125;28;20536;-81
2023/09/05 01:35:43;;;;;;;6.60;2.30;;;14.70;99.90;;;15.70;100.00;98656.34;5072152;28;20484;-81
2023/09/05 01:38:13;;;;;;;3.70;2.50;;;14.80;99.90;;;15.70;100.00;98656.34;5073558;28;20463;-81
2023/09/05 01:40:44;;;;;;;3.40;2.43;;;14.80;99.90;;;15.75;100.00;98657.38;5071220;28;20551;-81
2023/09/05 01:43:16;;;;;;;5.77;2.80;;;14.70;99.90;;;15.76;100.00;98661.59;5073667;28;20492;-81
2023/09/05 01:45:45;;;;;;;2.87;2.33;;;14.70;99.90;;;15.79;100.00;98655.13;5073043;28;20513;-82
2023/09/05 01:48:16;;;;;;;6.80;3.30;;;14.60;99.90;;;15.78;100.00;98653.50;5074478;28;20468;-81
2023/09/05 01:50:45;;;;;;;4.53;2.33;;;14.70;99.90;;;15.78;100.00;98650.88;5071652;28;20460;-81
2023/09/05 01:53:14;;;;;;;4.30;2.23;;;14.70;99.90;;;15.74;100.00;98649.66;5073013;28;20492;-81
2023/09/05 01:55:46;;;;;;;5.57;2.43;;;14.60;99.90;;;15.71;100.00;98647.44;5072811;28;20532;-81
2023/09/05 01:58:16;;;;;;;7.87;2.50;;;14.50;99.90;;;15.65;100.00;98650.88;5075209;28;20465;-81
2023/09/05 02:00:46;;;;;;;4.27;2.63;;;14.60;99.90;;;15.65;100.00;98650.88;5075077;28;20479;-82
2023/09/05 02:03:15;;;;;;;3.60;2.77;;;14.60;99.90;;;15.62;100.00;98646.03;5074041;28;20528;-81
2023/09/05 02:05:46;;;;;;;5.47;2.43;;;14.60;99.90;;;15.65;100.00;98650.88;5075920;28;20484;-81
2023/09/05 02:08:16;;;;;;;6.50;2.30;;;14.60;99.90;;;15.62;100.00;98646.81;5073763;28;20464;-81
2023/09/05 02:10:48;;;;;;;3.60;2.20;;;14.60;99.90;;;15.63;100.00;98648.44;5074928;28;20488;-81
2023/09/05 02:13:18;;;;;;;3.73;2.70;;;14.50;99.90;;;15.62;100.00;98648.66;5073718;28;20970;-81
2023/09/05 02:15:47;;;;;;;5.67;2.50;;;14.50;99.90;;;15.59;100.00;98648.03;5075439;28;20507;-81
2023/09/05 02:18:18;;;;;;;4.90;2.63;;;14.50;99.90;;;15.59;100.00;98641.94;5075533;28;20487;-81
2023/09/05 02:20:48;;;;;;;3.23;2.57;;;14.50;99.90;;;15.50;100.00;98637.91;5074555;28;20463;-81
2023/09/05 02:23:18;;;;;;;5.90;2.80;;;14.60;99.90;;;15.47;100.00;98639.09;5074633;28;20873;-81
2023/09/05 02:25:59;;;;;;;4.43;2.73;;;14.50;99.90;;;15.44;100.00;98644.78;5074408;28;20504;-81
2023/09/05 02:28:30;;;;;;;4.53;2.20;;;14.50;99.90;;;15.42;100.00;98646.78;5074477;28;20472;-81
2023/09/05 02:31:06;;;;;;;6.83;2.33;;;14.40;99.90;;;15.46;100.00;98644.56;5073419;28;20456;-81
2023/09/05 02:33:36;;;;;;;4.03;2.30;;;14.40;99.90;;;15.43;100.00;98647.63;5070732;28;20500;-81
2023/09/05 02:36:15;;;;;;;6.03;2.27;;;14.40;99.90;;;15.39;100.00;98644.56;5071786;28;20464;-81
2023/09/05 02:38:45;;;;;;;4.50;2.73;;;14.30;99.90;;;15.33;100.00;98650.66;5073240;28;20456;-81
2023/09/05 02:41:17;;;;;;;9.50;2.60;;;14.30;99.90;;;15.29;100.00;98645.97;5074694;28;20522;-81
2023/09/05 02:43:47;;;;;;;2.60;2.40;;;14.20;99.90;;;15.23;100.00;98647.63;5073421;28;20545;-81
2023/09/05 02:46:16;;;;;;;4.13;2.40;;;14.20;99.90;;;15.24;100.00;98643.16;5071426;28;20460;-81
2023/09/05 02:48:45;;;;;;;10.23;3.50;;;14.30;99.90;;;15.19;100.00;98643.75;5071797;28;20464;-81
2023/09/05 02:51:15;;;;;;;3.50;2.70;;;14.20;99.90;;;15.21;100.00;98639.09;5070870;28;20464;-81
2023/09/05 02:53:45;;;;;;;6.80;2.50;;;14.30;99.90;;;15.23;100.00;98634.44;5073908;28;20474;-81
2023/09/05 02:56:19;;;;;;;8.20;2.53;;;14.20;99.90;;;15.24;100.00;98637.88;5072709;28;20487;-81
2023/09/05 02:58:49;;;;;;;3.53;2.40;;;14.20;99.90;;;15.18;100.00;98639.50;5072068;28;20458;-81
2023/09/05 03:01:20;;;;;;;3.27;2.40;;;14.20;99.90;;;15.13;100.00;98655.88;5071655;28;20464;-80
2023/09/05 03:03:50;;;;;;;5.17;2.40;;;14.10;99.90;;;15.14;100.00;98640.91;5074509;28;20483;-81
2023/09/05 03:06:20;;;;;;;4.03;2.47;;;14.10;99.90;;;15.12;100.00;98648.19;5071623;28;20463;-81
2023/09/05 03:08:49;;;;;;;6.40;2.73;;;14.10;99.90;;;15.10;100.00;98643.13;5067307;28;20468;-81
2023/09/05 03:11:19;;;;;;;3.57;2.80;;;14.10;99.90;;;15.13;100.00;98649.84;5072122;28;20455;-81
2023/09/05 03:13:51;;;;;;;5.63;2.90;;;14.00;99.90;;;15.13;100.00;98647.19;5075405;28;20456;-79
2023/09/05 03:16:23;;;;;;;3.33;2.30;;;14.00;99.90;;;15.17;100.00;98647.63;5071752;28;20468;-81
2023/09/05 03:18:59;;;;;;;13.30;2.40;;;14.10;99.90;;;15.09;100.00;98635.44;5070752;28;20618;-80
2023/09/05 03:21:28;;;;;;;6.93;2.53;;;14.10;99.90;;;15.12;100.00;98640.31;5070754;28;20451;-80
2023/09/05 03:24:00;;;;;;;2.83;2.50;;;14.00;99.90;;;15.12;100.00;98637.66;5071360;28;20518;-81
2023/09/05 03:26:31;;;;;;;5.67;3.60;;;13.90;99.90;;;15.08;100.00;98634.63;5071826;28;20486;-81
2023/09/05 03:29:02;;;;;;;5.10;2.33;;;14.00;99.90;;;15.00;100.00;98641.88;5070955;28;20499;-81
2023/09/05 03:31:32;;;;;;;6.10;2.43;;;14.00;99.90;;;14.94;100.00;98634.78;5074271;28;20513;-82
2023/09/05 03:34:04;;;;;;;3.27;2.60;;;13.90;99.90;;;14.90;100.00;98639.66;5074117;28;20460;-82
2023/09/05 03:36:36;;;;;;;2.87;2.37;;;13.90;99.90;;;14.89;100.00;98634.59;5072085;28;20899;-81
2023/09/05 03:39:07;;;;;;;7.87;2.57;;;13.90;99.90;;;14.91;100.00;98638.66;5074768;28;20463;-81
2023/09/05 03:41:38;;;;;;;4.57;2.20;;;13.90;99.90;;;14.93;100.00;98638.44;5073349;28;20452;-81
2023/09/05 03:44:08;;;;;;;10.63;3.00;;;13.90;99.90;;;14.91;100.00;98627.31;5073341;28;20491;-82
2023/09/05 03:46:39;;;;;;;2.30;2.10;;;13.90;99.90;;;14.92;100.00;98629.75;5073701;28;20548;-82
2023/09/05 03:49:08;;;;;;;6.00;3.00;;;13.90;99.90;;;14.94;100.00;98622.44;5070876;28;20472;-80
2023/09/05 03:51:38;;;;;;;3.43;2.33;;;13.80;99.90;;;14.91;100.00;98622.03;5072276;28;20471;-81
2023/09/05 03:54:09;;;;;;;3.77;2.80;;;13.80;99.90;;;14.84;100.00;98629.94;5072202;28;20496;-80
2023/09/05 03:56:40;;;;;;;3.80;2.40;;;13.80;99.90;;;14.80;100.00;98631.31;5076000;28;20464;-81
2023/09/05 03:59:12;;;;;;;4.50;2.30;;;13.80;99.90;;;14.83;100.00;98632.75;5075107;28;20807;-82
2023/09/05 04:01:41;;;;;;;11.03;2.30;;;13.80;99.90;;;14.87;100.00;98628.72;5076668;28;20512;-82
2023/09/05 04:04:11;;;;;;;5.87;2.50;;;13.80;99.90;;;14.86;100.00;98627.06;5077697;28;20549;-82
2023/09/05 04:06:41;;;;;;;5.23;2.67;;;13.80;99.90;;;14.87;100.00;98633.97;5078912;28;20536;-81
2023/09/05 04:09:11;;;;;;;3.60;2.70;;;13.70;99.90;;;14.79;100.00;98628.88;5078512;28;20462;-81
2023/09/05 04:11:41;;;;;;;6.50;3.10;;;13.70;99.90;;;14.75;100.00;98633.72;5076609;28;20518;-81
2023/09/05 04:14:12;;;;;;;9.27;2.67;;;13.60;99.90;;;14.67;100.00;98635.75;5076526;28;21066;-82
2023/09/05 04:16:43;;;;;;;4.20;2.70;;;13.60;99.90;;;14.67;100.00;98638.38;5075269;28;20494;-81
2023/09/05 04:19:13;;;;;;;3.00;2.50;;;13.70;99.90;;;14.71;100.00;98639.63;5077954;28;20470;-82
2023/09/05 04:21:42;;;;;;;3.33;2.23;;;13.60;99.90;;;14.74;100.00;98644.47;5073779;28;20484;-81
2023/09/05 04:24:12;;;;;;;10.30;2.93;;;13.70;99.90;;;14.72;100.00;98643.84;5072452;28;21022;-81
2023/09/05 04:26:45;;;;;;;10.43;2.70;;;13.60;99.90;;;14.62;100.00;98636.34;5073196;28;20820;-81
2023/09/05 04:29:14;;;;;;;6.70;3.17;;;13.60;99.90;;;14.64;100.00;98636.16;5074353;28;20494;-80
2023/09/05 04:31:45;;;;;;;4.13;2.47;;;13.50;99.90;;;14.65;100.00;98645.69;5072634;28;20465;-82
2023/09/05 04:34:16;;;;;;;6.30;2.60;;;13.50;99.90;;;14.65;100.00;98643.03;5075859;28;20490;-80
2023/09/05 04:36:46;;;;;;;3.50;2.87;;;13.50;99.90;;;14.64;100.00;98650.13;5071383;28;20467;-81
2023/09/05 04:39:15;;;;;;;3.80;2.57;;;13.60;99.90;;;14.65;100.00;98649.09;5074847;28;20459;-81
2023/09/05 04:41:48;;;;;;;6.55;3.92;;;13.50;99.90;;;14.61;100.00;98651.31;5073503;28;20481;-82
2023/09/05 04:44:18;;;;;;;7.13;3.30;;;13.50;99.90;;;14.54;100.00;98650.47;5077960;28;20213;-81
2023/09/05 04:46:48;;;;;;;2.87;2.33;;;13.40;99.90;;;14.46;100.00;98650.66;5079864;28;21171;-81
2023/09/05 04:49:19;;;;;;;5.80;2.80;;;13.50;99.90;;;14.46;100.00;98650.66;5078997;28;20472;-81
2023/09/05 04:51:48;;;;;;;7.97;3.17;;;13.40;99.90;;;14.42;100.00;98654.69;5079246;28;20493;-81
2023/09/05 04:54:19;;;;;;;3.10;2.27;;;13.30;99.90;;;14.40;100.00;98659.34;5080041;28;20492;-81
2023/09/05 04:56:51;;;;;;;3.40;2.47;;;13.30;99.90;;;14.33;100.00;98649.78;5078830;28;20935;-81
2023/09/05 04:59:23;;;;;;;3.50;2.53;;;13.30;99.90;;;14.32;100.00;98653.41;5076100;28;20975;-81
2023/09/05 05:01:53;;;;;;;5.03;2.83;;;13.20;99.90;;;14.32;100.00;98661.31;5075874;28;20993;-81
2023/09/05 05:04:22;;;;;;;2.00;1.77;;;13.30;99.90;;;14.29;100.00;98659.88;5076031;28;20546;-81
2023/09/05 05:06:53;;;;;;;4.20;3.00;;;13.20;99.90;;;14.28;100.00;98655.63;5076419;28;20496;-81
2023/09/05 05:09:23;;;;;;;8.27;2.60;;;13.20;99.90;;;14.24;100.00;98657.00;5077512;28;20488;-81
2023/09/05 05:11:54;;;;;;;7.03;2.30;;;13.20;99.90;;;14.15;100.00;98663.44;5073368;28;20468;-81
2023/09/05 05:14:25;;;;;;;5.33;2.80;;;13.20;99.90;;;14.15;100.00;98666.06;5075328;28;20562;-81
2023/09/05 05:16:55;;;;;;;7.40;2.20;;;13.20;99.90;;;14.18;100.00;98663.06;5075633;28;20471;-81
2023/09/05 05:19:25;;;;;;;3.20;2.57;;;13.20;99.90;;;14.11;100.00;98668.28;5077446;28;20537;-81
2023/09/05 05:21:55;;;;;;;6.43;2.97;;;13.10;99.90;;;14.16;100.00;98666.91;5075067;28;20486;-81
2023/09/05 05:24:25;;;;;;;3.00;2.33;;;13.10;99.90;;;14.15;100.00;98670.53;5078445;28;20502;-81
2023/09/05 05:26:56;;;;;;;3.60;2.63;;;13.20;99.90;;;14.13;100.00;98666.25;5077353;28;20459;-81
2023/09/05 05:29:25;;;;;;;3.80;2.70;;;13.10;99.90;;;14.16;100.00;98662.41;5078938;28;20460;-81
2023/09/05 05:31:56;;;;;;;3.20;2.50;;;13.20;99.90;;;14.18;100.00;98665.69;5077526;28;20459;-81
2023/09/05 05:34:26;;;;;;;4.13;2.57;;;13.20;99.90;;;14.14;100.00;98659.19;5076444;28;20536;-81
2023/09/05 05:37:00;;;;;;;7.03;2.90;;;13.20;99.90;;;14.18;100.00;98673.56;5077039;28;21029;-81
2023/09/05 05:39:31;;;;;;;5.70;2.83;;;13.10;99.90;;;14.20;100.00;98674.19;5077783;28;20464;-81
2023/09/05 05:42:04;;;;;;;3.50;2.33;;;13.10;99.90;;;14.21;100.00;98673.19;5077398;28;20460;-82
2023/09/05 05:44:34;;;;;;;4.80;2.80;;;13.20;99.90;;;14.17;100.00;98677.19;5076871;28;20496;-81
2023/09/05 05:47:04;;;;;;;7.30;2.73;;;13.20;99.90;;;14.16;100.00;98680.84;5077332;28;20517;-81
2023/09/05 05:49:34;;;;;;;9.33;2.80;;;13.20;99.90;;;14.19;100.00;98680.47;5075545;28;20456;-81
2023/09/05 05:52:04;;;;;;;5.10;2.50;;;13.10;99.90;;;14.19;100.00;98675.22;5075482;28;20466;-81
2023/09/05 05:54:34;;;;;;;7.07;3.30;;;13.20;99.90;;;14.24;100.00;98674.59;5080104;28;20466;-81
2023/09/05 05:57:07;;;;;;;5.80;2.83;;;13.20;99.90;;;14.27;100.00;98675.03;5077275;28;20549;-81
2023/09/05 05:59:37;;;;;;;3.67;2.97;;;13.20;99.90;;;14.30;100.00;98681.75;5075534;28;20470;-81
2023/09/05 06:02:07;;;;;;;4.53;3.00;;;13.20;99.90;;;14.26;100.00;98676.06;5074154;28;20870;-81
2023/09/05 06:04:37;;;;;;;3.33;2.43;;;13.30;99.90;;;14.27;100.00;98672.41;5077067;28;20502;-81
2023/09/05 06:07:06;;;;;;;3.47;2.87;;;13.30;99.90;;;14.28;100.00;98674.03;5075924;28;20950;-81
2023/09/05 06:09:36;;;;;;;7.17;2.60;;;13.30;99.90;;;14.29;100.00;98673.03;5076771;28;20458;-81
2023/09/05 06:12:10;;;;;;;3.80;2.70;;;13.20;99.90;;;14.32;100.00;98674.44;5076365;28;20467;-81
2023/09/05 06:14:41;;;;;;;7.03;2.83;;;13.20;99.90;;;14.35;100.00;98669.66;5076819;28;20456;-80
2023/09/05 06:17:11;;;;;;;3.63;2.50;;;13.30;99.90;;;14.31;100.00;98668.38;5075479;28;20510;-81
2023/09/05 06:19:42;;;;;;;4.23;3.13;;;13.30;99.90;;;14.32;100.00;98663.94;5080654;28;20814;-81
2023/09/05 06:22:14;;;;;;;3.93;2.87;;;13.30;99.90;;;14.34;100.00;98661.94;5077132;28;20501;-80
2023/09/05 06:24:44;;;;;;;3.00;2.70;;;13.40;99.90;;;14.35;100.00;98659.13;5076715;28;20505;-81
2023/09/05 06:27:15;;;;;;;3.93;3.00;;;13.40;99.90;;;14.42;100.00;98667.03;5078502;28;20461;-81
2023/09/05 06:29:44;;;;;;;3.40;2.50;;;13.40;99.90;;;14.45;100.00;98675.34;5078429;28;20831;-81
2023/09/05 06:32:14;;;;;;;5.17;2.63;;;13.40;99.90;;;14.52;100.00;98678.00;5077320;28;20980;-81
2023/09/05 06:34:46;;;;;;;4.17;3.07;;;13.50;99.90;;;14.54;100.00;98673.38;5077251;28;20513;-81
2023/09/05 06:37:15;;;;;;;5.03;3.17;;;13.50;99.90;;;14.58;100.00;98674.59;5079012;28;20528;-81
2023/09/05 06:39:45;;;;;;;3.60;2.60;;;13.60;99.90;;;14.65;100.00;98674.63;5074242;28;20490;-81
2023/09/05 06:42:19;;;;;;;4.13;2.57;;;13.70;99.90;;;14.72;100.00;98681.53;5075518;28;20487;-81
2023/09/05 06:44:49;;;;;;;12.43;2.70;;;13.70;99.90;;;14.76;100.00;98676.69;5077408;28;20994;-81
2023/09/05 06:47:20;;;;;;;6.20;3.20;;;13.80;99.90;;;14.77;100.00;98679.13;5078052;28;20456;-81
2023/09/05 06:49:50;;;;;;;7.70;2.40;;;13.80;99.90;;;14.84;100.00;98679.13;5077594;28;20872;-81
2023/09/05 06:52:21;;;;;;;4.27;2.67;;;13.90;99.90;;;14.88;100.00;98680.38;5075880;28;20500;-81
2023/09/05 06:54:52;;;;;;;4.37;3.67;;;14.00;99.90;;;14.94;100.00;98679.56;5076971;28;20467;-81
2023/09/05 06:57:22;;;;;;;12.13;3.00;;;14.00;99.90;;;15.02;100.00;98671.50;5074859;28;21025;-81
2023/09/05 06:59:52;;;;;;;4.43;2.70;;;14.10;99.90;;;15.07;100.00;98672.50;5074903;28;20532;-80
2023/09/05 07:02:22;;;;;;;9.00;3.13;;;14.10;99.90;;;15.15;100.00;98668.88;5075338;28;20471;-81
2023/09/05 07:04:51;;;;;;;3.87;2.60;;;14.20;99.90;;;15.19;100.00;98670.09;5076604;28;21012;-82
2023/09/05 07:07:22;;;;;;;12.73;2.80;;;14.20;99.90;;;15.22;100.00;98669.69;5074503;28;20455;-81
2023/09/05 07:09:53;;;;;;;4.50;2.87;;;14.20;99.90;;;15.29;100.00;98665.25;5075780;28;20463;-81
2023/09/05 07:12:23;;;;;;;2.73;2.27;;;14.30;99.90;;;15.34;100.00;98662.00;5072789;28;20460;-81
2023/09/05 07:14:54;;;;;;;6.30;2.53;;;14.50;99.90;;;15.40;100.00;98663.84;5077171;28;20459;-81
2023/09/05 07:17:24;;;;;;;6.70;2.60;;;14.50;99.90;;;15.46;100.00;98661.19;5079291;28;20458;-81
2023/09/05 07:19:54;;;;;;;5.50;2.63;;;14.60;99.90;;;15.49;100.00;98660.00;5078805;28;20854;-81
2023/09/05 07:22:25;;;;;;;8.50;2.90;;;14.60;99.90;;;15.54;100.00;98661.03;5077057;28;20531;-81
2023/09/05 07:24:56;;;;;;;6.77;3.13;;;14.70;99.90;;;15.62;100.00;98656.56;5075866;28;20976;-81
2023/09/05 07:27:29;;;;;;;4.07;2.80;;;14.70;99.90;;;15.68;100.00;98648.66;5076821;28;20479;-81
2023/09/05 07:29:59;;;;;;;6.20;3.10;;;14.80;99.90;;;15.75;100.00;98652.09;5078383;28;20456;-81
2023/09/05 07:32:29;;;;;;;4.63;3.10;;;14.80;99.90;;;15.82;100.00;98652.09;5077679;28;20464;-81
2023/09/05 07:35:00;;;;;;;3.27;2.67;;;14.90;99.90;;;15.86;100.00;98650.66;5080539;28;20467;-81
2023/09/05 07:37:29;;;;;;;5.20;3.10;;;15.00;99.90;;;15.90;100.00;98643.94;5083174;28;20462;-81
2023/09/05 07:39:59;;;;;;;3.50;2.80;;;15.10;99.90;;;15.96;100.00;98648.41;5079844;28;20538;-81
2023/09/05 07:42:32;;;;;;;5.33;2.60;;;15.10;99.90;;;16.04;100.00;98637.59;5079405;28;20472;-81
2023/09/05 07:45:03;;;;;;;3.30;2.27;;;15.20;99.90;;;16.11;100.00;98646.31;5080458;28;20480;-81
2023/09/05 07:47:33;;;;;;;3.50;2.63;;;15.20;99.90;;;16.19;100.00;98643.47;5081410;28;20942;-81
2023/09/05 07:50:04;;;;;;;4.03;2.40;;;15.30;99.90;;;16.29;100.00;98645.66;5081101;28;20466;-81
2023/09/05 07:52:34;;;;;;;3.73;2.80;;;15.50;99.90;;;16.39;100.00;98644.19;5081071;28;22267;-81
2023/09/05 07:55:06;;;;;;;3.70;2.33;;;15.60;99.90;;;16.46;100.00;98650.25;5078575;28;20947;-81
2023/09/05 07:57:38;;;;;;;4.20;2.20;;;15.70;99.90;;;16.52;100.00;98648.63;5081961;28;20460;-81
2023/09/05 08:00:14;;;;;;;3.03;2.40;;;15.80;99.90;;;16.58;100.00;98643.34;5079070;28;20957;-81
2023/09/05 08:02:44;;;;;;;3.33;2.97;;;15.80;99.90;;;16.63;100.00;98640.06;5081804;28;20543;-81
2023/09/05 08:05:15;;;;;;;5.00;2.70;;;15.90;99.90;;;16.70;100.00;98648.75;5079242;28;20523;-81
2023/09/05 08:07:46;;;;;;;4.60;2.70;;;16.00;99.90;;;16.79;100.00;98654.63;5079103;28;20459;-81
2023/09/05 08:10:15;;;;;;;3.20;2.13;;;16.10;99.90;;;16.83;100.00;98654.00;5078456;28;20463;-81
2023/09/05 08:12:47;;;;;;;3.20;1.93;;;16.20;99.90;;;16.92;100.00;98654.53;5083229;28;20494;-81
2023/09/05 08:15:17;;;;;;;7.30;2.03;;;16.30;99.90;;;17.01;100.00;98647.97;5079171;28;20843;-81
2023/09/05 08:17:47;;;;;;;3.57;2.20;;;16.30;99.90;;;17.10;100.00;98646.72;5080888;28;20946;-81
2023/09/05 08:20:17;;;;;;;5.00;2.50;;;16.40;99.90;;;17.17;100.00;98644.81;5079679;28;20475;-81
2023/09/05 08:22:47;;;;;;;4.47;2.50;;;16.50;99.90;;;17.25;100.00;98638.47;5079191;28;20460;-81
2023/09/05 08:25:18;;;;;;;7.00;2.50;;;16.60;99.90;;;17.34;100.00;98642.47;5082109;28;20484;-81
2023/09/05 08:27:50;;;;;;;3.83;2.10;;;16.60;99.90;;;17.43;100.00;98641.97;5080484;28;20451;-82
2023/09/05 08:30:21;;;;;;;8.10;2.50;;;16.70;99.90;;;17.49;100.00;98646.38;5082356;28;20581;-81
2023/09/05 08:32:50;;;;;;;2.90;2.30;;;16.90;99.90;;;17.57;100.00;98638.22;5078673;28;20566;-81
2023/09/05 08:35:22;;;;;;;2.73;2.40;;;16.90;99.90;;;17.63;100.00;98635.75;5079055;28;20658;-81
2023/09/05 08:37:52;;;;;;;14.57;2.63;;;17.00;99.90;;;17.69;100.00;98634.88;5078393;28;20941;-81
2023/09/05 08:40:23;;;;;;;5.70;3.90;;;17.00;99.90;;;17.75;100.00;98634.81;5078464;28;20510;-81
2023/09/05 08:42:55;;;;;;;4.37;2.67;;;17.10;99.90;;;17.83;100.00;98634.53;5078944;28;20470;-81
2023/09/05 08:45:24;;;;;;;3.70;2.60;;;17.20;99.90;;;17.89;100.00;98635.50;5078659;28;20764;-82
2023/09/05 08:47:54;;;;;;;2.83;2.20;;;17.20;99.90;;;17.94;100.00;98635.66;5078146;28;20474;-81
2023/09/05 08:50:25;;;;;;;2.80;1.70;;;17.30;99.90;;;18.00;100.00;98637.41;5079564;28;20462;-79
2023/09/05 08:53:02;;;;;;;2.30;1.97;;;17.30;99.90;;;18.07;100.00;98643.44;5077087;28;20532;-81
2023/09/05 08:55:32;;;;;;;3.07;2.17;;;17.40;99.90;;;18.13;100.00;98631.97;5078020;28;20590;-81
2023/09/05 08:58:06;;;;;;;3.87;2.23;;;17.50;99.90;;;18.19;100.00;98636.38;5078457;28;20555;-81
2023/09/05 09:00:38;;;;;;;2.83;2.27;;;17.50;99.90;;;18.24;100.00;98633.06;5079204;28;20459;-81
2023/09/05 09:03:07;;;;;;;2.50;2.20;;;17.60;99.90;;;18.32;100.00;98635.44;5079184;28;21030;-81
2023/09/05 09:05:38;;;;;;;6.23;2.00;;;17.70;99.90;;;18.37;100.00;98635.56;5079628;28;20488;-81
2023/09/05 09:08:10;;;;;;;3.00;2.13;;;17.70;99.90;;;18.42;100.00;98636.53;5080703;28;20544;-81
2023/09/05 09:10:40;;;;;;;3.10;1.90;;;17.80;99.90;;;18.48;100.00;98632.16;5077455;28;20561;-80
2023/09/05 09:13:21;;;;;;;4.30;2.20;;;17.90;99.90;;;18.55;100.00;98624.97;5076659;28;20549;-81
2023/09/05 09:15:53;;;;;;;4.70;1.90;;;17.90;99.90;;;18.60;100.00;98628.56;5078615;28;20548;-81
2023/09/05 09:18:22;;;;;;;3.50;2.10;;;18.00;99.90;;;18.75;100.00;98630.00;5079611;28;20529;-81
2023/09/05 09:20:52;;;;;;;3.30;2.43;;;18.20;99.90;;;18.82;100.00;98625.44;5079903;28;20477;-81
2023/09/05 09:23:27;;;;;;;2.23;1.80;;;18.30;99.90;;;18.89;100.00;98623.50;5079751;28;20464;-81
2023/09/05 09:26:00;;;;;;;3.60;2.27;;;18.30;99.90;;;19.00;100.00;98622.72;5079180;28;20487;-81
2023/09/05 09:28:32;;;;;;;3.20;2.13;;;18.50;99.90;;;19.06;100.00;98621.81;5080584;28;20459;-81
2023/09/05 09:31:05;;;;;;;2.90;1.97;;;18.50;99.90;;;19.12;100.00;98623.56;5078798;28;20456;-80
2023/09/05 09:33:35;;;;;;;3.80;2.37;;;18.60;99.90;;;19.20;100.00;98628.53;5078820;28;20515;-81
2023/09/05 09:36:09;;;;;;;2.80;2.10;;;18.60;99.90;;;19.25;100.00;98620.72;5077648;28;20477;-81
2023/09/05 09:38:40;;;;;;;3.60;2.10;;;18.70;99.90;;;19.32;100.00;98613.47;5077776;28;20552;-80
2023/09/05 09:41:12;;;;;;;2.63;2.00;;;18.80;99.90;;;19.37;100.00;98616.22;5075738;28;20471;-82
2023/09/05 09:43:44;;;;;;;4.00;2.30;;;18.80;99.90;;;19.42;100.00;98613.72;5076363;28;20502;-81
2023/09/05 09:46:14;;;;;;;3.97;2.17;;;18.90;99.90;;;19.51;100.00;98609.69;5078551;28;20475;-81
2023/09/05 09:48:47;;;;;;;3.43;2.27;;;19.00;99.90;;;19.59;100.00;98612.00;5075672;28;20910;-82
2023/09/05 09:51:20;;;;;;;3.80;2.13;;;19.00;99.90;;;19.66;100.00;98603.94;5076453;28;20864;-81
2023/09/05 09:53:54;;;;;;;2.73;2.00;;;19.10;99.90;;;19.71;100.00;98603.25;5077032;28;20462;-81
2023/09/05 09:56:27;;;;;;;5.40;2.10;;;19.20;99.90;;;19.76;100.00;98598.84;5075590;28;20468;-81
2023/09/05 09:59:00;;;;;;;3.50;2.00;;;19.20;99.90;;;19.85;100.00;98604.63;5077291;28;20467;-81
2023/09/05 10:01:31;;;;;;;3.27;1.93;;;19.30;99.90;;;19.90;100.00;98599.41;5076315;28;20559;-81
2023/09/05 10:04:01;;;;;;;4.73;2.13;;;19.30;99.90;;;19.93;100.00;98586.47;5076543;28;20483;-81
2023/09/05 10:06:31;;;;;;;3.80;2.07;;;19.40;99.90;;;20.01;100.00;98585.31;5078161;28;21218;-81
2023/09/05 10:09:03;;;;;;;2.07;1.63;;;19.40;99.90;;;20.06;100.00;98591.50;5077237;28;20533;-81
2023/09/05 10:11:34;;;;;;;8.00;2.40;;;19.50;99.90;;;20.13;100.00;98586.09;5076768;28;21028;-81
2023/09/05 10:14:05;;;;;;;4.27;2.07;;;19.60;99.90;;;20.18;100.00;98586.19;5077834;28;21060;-82
2023/09/05 10:16:35;;;;;;;1.97;1.77;;;19.60;99.90;;;20.25;100.00;98583.38;5077926;28;20478;-81
2023/09/05 10:19:05;;;;;;;2.50;1.90;;;19.70;99.90;;;20.39;100.00;98580.25;5075902;28;20459;-81
2023/09/05 10:21:37;;;;;;;2.70;1.80;;;19.90;99.90;;;20.44;100.00;98577.69;5075815;28;20922;-81
2023/09/05 10:24:09;;;;;;;7.13;1.87;;;19.90;99.90;;;20.57;100.00;98571.31;5076910;28;20471;-82
2023/09/05 10:26:39;;;;;;;2.50;1.67;;;20.10;99.90;;;20.65;100.00;98572.78;5076948;28;21092;-81
2023/09/05 10:29:35;;;;;;;2.70;1.83;;;20.10;99.90;;;20.76;100.00;98569.22;5078378;28;20440;-81